createdAt,value
2022-12-08T00:02:10.697Z,2.40
2022-12-08T00:04:57.270Z,2.50
2022-12-08T00:07:42.306Z,2.50
2022-12-08T00:10:39.716Z,2.65
2022-12-08T00:12:55.360Z,2.50
2022-12-08T00:15:21.695Z,2.60
2022-12-08T00:17:52.134Z,3.17
2022-12-08T00:20:18.787Z,2.33
2022-12-08T00:22:45.119Z,2.60
2022-12-08T00:25:11.440Z,2.70
2022-12-08T00:27:37.751Z,2.58
2022-12-08T00:30:08.954Z,2.45
2022-12-08T00:32:37.569Z,2.97
2022-12-08T00:35:04.544Z,3.35
2022-12-08T00:37:31.179Z,3.13
2022-12-08T00:39:57.500Z,3.08
2022-12-08T00:42:23.810Z,2.95
2022-12-08T00:44:50.219Z,2.80
2022-12-08T00:47:21.012Z,3.47
2022-12-08T00:49:49.853Z,3.92
2022-12-08T00:52:16.223Z,3.00
2022-12-08T00:54:42.514Z,3.40
2022-12-08T00:57:08.853Z,3.23
2022-12-08T00:59:35.287Z,3.40
2022-12-08T01:02:01.661Z,2.90
2022-12-08T01:04:27.972Z,2.58
2022-12-08T01:06:54.414Z,3.30
2022-12-08T01:09:20.785Z,2.87
2022-12-08T01:11:47.489Z,3.00
2022-12-08T01:14:14.231Z,2.97
2022-12-08T01:16:41.420Z,3.67
2022-12-08T01:19:09.807Z,3.13
2022-12-08T01:21:43.955Z,3.10
2022-12-08T01:24:17.244Z,2.60
2022-12-08T01:26:43.646Z,2.75
2022-12-08T01:29:10.614Z,2.78
2022-12-08T01:31:37.348Z,2.70
2022-12-08T01:34:04.030Z,2.57
2022-12-08T01:36:32.722Z,2.55
2022-12-08T01:39:07.008Z,2.72
2022-12-08T01:41:44.974Z,1.67
2022-12-08T01:44:15.422Z,2.03
2022-12-08T01:46:55.504Z,1.90
2022-12-08T01:49:34.045Z,2.00
2022-12-08T01:52:29.068Z,1.90
2022-12-08T01:55:01.662Z,2.08
2022-12-08T01:57:32.451Z,2.10
2022-12-08T02:00:07.359Z,1.87
2022-12-08T02:02:57.477Z,1.98
2022-12-08T02:05:28.190Z,1.70
2022-12-08T02:07:56.062Z,1.80
2022-12-08T02:10:27.403Z,1.75
2022-12-08T02:12:56.294Z,1.47
2022-12-08T02:15:33.520Z,1.42
2022-12-08T02:18:08.450Z,1.77
2022-12-08T02:20:58.087Z,1.50
2022-12-08T02:23:44.113Z,1.90
2022-12-08T02:26:42.750Z,1.87
2022-12-08T02:29:31.962Z,1.90
2022-12-08T02:32:16.276Z,2.08
2022-12-08T02:34:54.656Z,2.10
2022-12-08T02:37:30.855Z,2.03
2022-12-08T02:40:10.074Z,2.27
2022-12-08T02:43:06.921Z,2.55
2022-12-08T02:45:41.228Z,2.40
2022-12-08T02:48:09.621Z,1.95
2022-12-08T02:50:36.557Z,2.15
2022-12-08T02:55:54.654Z,2.80
2022-12-08T02:58:36.310Z,2.75
2022-12-08T03:01:12.887Z,2.92
2022-12-08T03:04:03.686Z,2.65
2022-12-08T03:06:38.972Z,2.70
2022-12-08T03:09:38.326Z,2.20
2022-12-08T03:12:36.514Z,2.47
2022-12-08T03:15:09.446Z,2.35
2022-12-08T03:17:38.534Z,2.60
2022-12-08T03:20:10.927Z,2.20
2022-12-08T03:22:39.566Z,2.10
2022-12-08T03:25:07.809Z,2.45
2022-12-08T03:27:34.316Z,1.98
2022-12-08T03:30:01.412Z,1.70
2022-12-08T03:32:34.771Z,1.67
2022-12-08T03:35:09.225Z,1.50
2022-12-08T03:37:40.049Z,1.70
2022-12-08T03:40:09.896Z,1.10
2022-12-08T03:42:36.198Z,1.23
2022-12-08T03:45:02.776Z,0.70
2022-12-08T03:47:29.116Z,0.60
2022-12-08T03:49:55.562Z,0.73
2022-12-08T03:52:21.964Z,0.60
2022-12-08T03:54:48.432Z,0.90
2022-12-08T03:57:14.929Z,0.63
2022-12-08T03:59:41.341Z,0.63
2022-12-08T04:02:07.698Z,0.30
2022-12-08T04:04:34.654Z,0.52
2022-12-08T04:07:00.960Z,0.40
2022-12-08T04:09:29.133Z,0.73
2022-12-08T04:11:55.579Z,0.40
2022-12-08T04:14:22.007Z,0.20
2022-12-08T04:16:48.319Z,0.20
2022-12-08T04:19:15.441Z,0.40
2022-12-08T04:21:41.776Z,0.40
2022-12-08T04:24:09.205Z,0.20
2022-12-08T04:26:35.533Z,0.35
2022-12-08T04:29:01.845Z,0.22
2022-12-08T04:31:33.487Z,0.40
2022-12-08T04:34:00.252Z,0.30
2022-12-08T04:36:26.575Z,0.30
2022-12-08T04:38:53.046Z,0.30
2022-12-08T04:41:19.611Z,0.40
2022-12-08T04:43:45.937Z,0.65
2022-12-08T04:46:13.787Z,0.40
2022-12-08T04:48:41.081Z,0.57
2022-12-08T04:51:07.831Z,0.70
2022-12-08T04:53:34.172Z,0.80
2022-12-08T04:56:00.700Z,0.90
2022-12-08T04:58:27.027Z,0.97
2022-12-08T05:00:53.404Z,1.20
2022-12-08T05:03:25.275Z,1.65
2022-12-08T05:05:54.720Z,1.08
2022-12-08T05:08:21.177Z,1.25
2022-12-08T05:10:47.531Z,1.37
2022-12-08T05:13:18.442Z,0.93
2022-12-08T05:15:44.992Z,1.10
2022-12-08T05:18:11.427Z,0.95
2022-12-08T05:20:37.750Z,0.98
2022-12-08T05:23:04.290Z,0.90
2022-12-08T05:25:30.643Z,1.08
2022-12-08T05:28:32.696Z,0.70
2022-12-08T05:30:49.180Z,0.40
2022-12-08T05:33:15.699Z,0.70
2022-12-08T05:35:42.016Z,0.70
2022-12-08T05:38:09.470Z,0.65
2022-12-08T05:40:39.010Z,0.65
2022-12-08T05:43:05.514Z,0.57
2022-12-08T05:45:32.012Z,0.25
2022-12-08T05:47:58.551Z,0.30
2022-12-08T05:50:24.866Z,0.50
2022-12-08T05:52:51.248Z,0.30
2022-12-08T05:55:17.696Z,0.38
2022-12-08T05:57:44.444Z,0.30
2022-12-08T06:00:11.241Z,0.20
2022-12-08T06:02:37.740Z,0.30
2022-12-08T06:05:04.482Z,0.15
2022-12-08T06:07:30.861Z,0.40
2022-12-08T06:09:57.207Z,0.20
2022-12-08T06:12:24.209Z,0.30
2022-12-08T06:14:50.596Z,0.30
2022-12-08T06:17:16.919Z,0.30
2022-12-08T06:19:43.247Z,0.20
2022-12-08T06:22:09.605Z,0.20
2022-12-08T06:24:36.103Z,0.17
2022-12-08T06:27:02.424Z,0.30
2022-12-08T06:29:28.779Z,0.30
2022-12-08T06:31:55.237Z,0.20
2022-12-08T06:34:21.587Z,0.20
2022-12-08T06:36:48.110Z,0.20
2022-12-08T06:39:15.797Z,0.13
2022-12-08T06:42:00.815Z,0.22
2022-12-08T06:44:27.145Z,0.20
2022-12-08T06:46:53.451Z,0.20
2022-12-08T06:49:19.998Z,0.10
2022-12-08T06:51:59.808Z,0.20
2022-12-08T06:54:26.996Z,0.30
2022-12-08T06:56:53.369Z,0.20
2022-12-08T06:59:19.951Z,0.20
2022-12-08T07:01:46.926Z,0.20
2022-12-08T07:04:13.317Z,0.20
2022-12-08T07:06:39.891Z,0.30
2022-12-08T07:09:07.360Z,0.22
2022-12-08T07:11:33.929Z,0.43
2022-12-08T07:14:03.254Z,0.40
2022-12-08T07:16:29.839Z,0.50
2022-12-08T07:18:56.211Z,0.60
2022-12-08T07:21:22.886Z,0.73
2022-12-08T07:23:56.047Z,0.80
2022-12-08T07:26:23.834Z,1.03
2022-12-08T07:28:50.152Z,1.10
2022-12-08T07:31:22.389Z,1.13
2022-12-08T07:33:50.108Z,0.90
2022-12-08T07:36:16.846Z,1.27
2022-12-08T07:38:43.482Z,1.20
2022-12-08T07:41:19.184Z,0.90
2022-12-08T07:43:45.605Z,1.15
2022-12-08T07:46:16.681Z,1.30
2022-12-08T07:48:44.721Z,1.00
2022-12-08T07:51:12.819Z,1.00
2022-12-08T07:53:42.575Z,1.05
2022-12-08T07:56:10.504Z,0.80
2022-12-08T07:58:39.674Z,0.65
2022-12-08T08:01:07.159Z,0.95
2022-12-08T08:03:33.770Z,0.97
2022-12-08T08:06:03.823Z,0.93
2022-12-08T08:08:31.801Z,1.30
2022-12-08T08:10:59.099Z,0.80
2022-12-08T08:13:27.589Z,1.00
2022-12-08T08:15:55.748Z,0.80
2022-12-08T08:18:25.543Z,0.63
2022-12-08T08:21:22.133Z,0.82
2022-12-08T08:23:54.044Z,0.70
2022-12-08T08:26:25.527Z,0.60
2022-12-08T08:28:57.059Z,0.70
2022-12-08T08:31:28.673Z,0.38
2022-12-08T08:33:58.149Z,0.70
2022-12-08T08:36:24.554Z,0.60
2022-12-08T08:39:00.232Z,0.52
2022-12-08T08:41:31.872Z,0.40
2022-12-08T08:43:59.365Z,0.30
2022-12-08T08:46:25.798Z,0.40
2022-12-08T08:48:58.271Z,0.50
2022-12-08T08:51:30.574Z,0.40
2022-12-08T08:53:57.321Z,0.27
2022-12-08T08:56:24.180Z,0.55
2022-12-08T08:58:52.392Z,0.45
2022-12-08T09:01:25.369Z,0.40
2022-12-08T09:03:52.709Z,0.40
2022-12-08T09:06:19.642Z,0.50
2022-12-08T09:08:46.807Z,0.40
2022-12-08T09:11:13.761Z,0.30
2022-12-08T09:13:40.213Z,0.28
2022-12-08T09:16:14.022Z,0.40
2022-12-08T09:18:41.335Z,0.30
2022-12-08T09:21:19.460Z,0.30
2022-12-08T09:23:46.447Z,0.30
2022-12-08T09:26:12.826Z,0.38
2022-12-08T09:28:46.236Z,0.50
2022-12-08T09:31:14.206Z,0.50
2022-12-08T09:33:41.053Z,0.50
2022-12-08T09:36:10.632Z,0.32
2022-12-08T09:38:41.941Z,0.45
2022-12-08T09:41:19.452Z,0.47
2022-12-08T09:43:57.886Z,0.40
2022-12-08T09:46:30.205Z,0.52
2022-12-08T09:49:02.185Z,0.40
2022-12-08T09:51:34.954Z,0.40
2022-12-08T09:54:07.819Z,0.40
2022-12-08T09:56:37.025Z,0.40
2022-12-08T09:59:22.061Z,0.32
2022-12-08T10:01:48.904Z,0.25
2022-12-08T10:04:34.000Z,0.30
2022-12-08T10:07:16.495Z,0.30
2022-12-08T10:10:02.076Z,0.40
2022-12-08T10:12:54.146Z,0.32
2022-12-08T10:15:38.530Z,0.30
2022-12-08T10:18:18.774Z,0.30
2022-12-08T10:20:48.724Z,0.30
2022-12-08T10:23:28.554Z,0.30
2022-12-08T10:26:04.259Z,0.50
2022-12-08T10:28:32.972Z,0.47
2022-12-08T10:30:59.406Z,0.30
2022-12-08T10:33:25.943Z,0.20
2022-12-08T10:35:54.808Z,0.30
2022-12-08T10:38:27.081Z,0.40
2022-12-08T10:41:00.933Z,0.20
2022-12-08T10:43:27.841Z,0.20
2022-12-08T10:45:54.442Z,0.43
2022-12-08T10:48:28.478Z,0.30
2022-12-08T10:51:00.493Z,0.30
2022-12-08T10:53:29.346Z,0.55
2022-12-08T10:56:02.178Z,0.30
2022-12-08T10:58:35.933Z,0.40
2022-12-08T11:01:21.716Z,0.30
2022-12-08T11:03:58.597Z,0.38
2022-12-08T11:06:42.149Z,0.30
2022-12-08T11:09:17.741Z,0.10
2022-12-08T11:11:51.658Z,0.20
2022-12-08T11:14:33.239Z,0.20
2022-12-08T11:17:10.041Z,0.20
2022-12-08T11:19:38.834Z,0.30
2022-12-08T11:22:32.373Z,0.13
2022-12-08T11:25:12.274Z,0.20
2022-12-08T11:27:46.693Z,0.20
2022-12-08T11:30:25.802Z,0.10
2022-12-08T11:33:01.183Z,0.20
2022-12-08T11:35:45.577Z,0.30
2022-12-08T11:38:22.260Z,0.38
2022-12-08T11:41:16.494Z,0.40
2022-12-08T11:43:55.164Z,0.63
2022-12-08T11:46:38.866Z,0.70
2022-12-08T11:49:11.347Z,0.70
2022-12-08T11:51:46.047Z,0.82
2022-12-08T11:54:31.867Z,0.60
2022-12-08T11:57:00.808Z,0.73
2022-12-08T11:59:34.252Z,0.50
2022-12-08T12:02:02.708Z,0.60
2022-12-08T12:04:41.349Z,0.70
2022-12-08T12:07:26.339Z,0.40
2022-12-08T12:10:00.889Z,0.20
2022-12-08T12:12:59.256Z,0.20
2022-12-08T12:15:40.701Z,0.20
2022-12-08T12:18:28.970Z,0.20
2022-12-08T12:21:00.730Z,0.20
2022-12-08T12:23:39.258Z,0.10
2022-12-08T12:26:08.826Z,0.10
2022-12-08T12:29:00.302Z,0.17
2022-12-08T12:31:31.302Z,0.20
2022-12-08T12:34:13.290Z,0.17
2022-12-08T12:37:11.324Z,0.10
2022-12-08T12:39:52.766Z,0.30
2022-12-08T12:42:47.924Z,0.20
2022-12-08T12:45:17.686Z,0.20
2022-12-08T12:48:04.218Z,0.30
2022-12-08T12:50:34.141Z,0.30
2022-12-08T12:53:15.881Z,0.38
2022-12-08T12:55:45.646Z,0.40
2022-12-08T12:58:42.532Z,0.60
2022-12-08T13:01:12.595Z,0.80
2022-12-08T13:03:41.959Z,0.85
2022-12-08T13:06:14.665Z,1.00
2022-12-08T13:08:52.423Z,0.88
2022-12-08T13:11:19.258Z,1.27
2022-12-08T13:14:26.431Z,1.00
2022-12-08T13:16:56.200Z,0.90
2022-12-08T13:19:23.807Z,1.00
2022-12-08T13:21:50.323Z,0.90
2022-12-08T13:24:33.700Z,0.60
2022-12-08T13:27:03.124Z,0.70
2022-12-08T13:29:31.133Z,0.50
2022-12-08T13:31:58.541Z,0.40
2022-12-08T13:34:34.408Z,0.30
2022-12-08T13:37:19.017Z,0.30
2022-12-08T13:39:53.554Z,0.40
2022-12-08T13:42:38.373Z,0.30
2022-12-08T13:49:32.283Z,0.52
2022-12-08T13:57:34.564Z,0.75
2022-12-08T14:00:08.118Z,0.90
2022-12-08T14:02:42.052Z,1.15
2022-12-08T14:05:23.470Z,1.13
2022-12-08T14:07:57.488Z,1.10
2022-12-08T14:10:28.090Z,1.33
2022-12-08T14:13:13.696Z,1.10
2022-12-08T14:15:40.827Z,1.40
2022-12-08T14:18:26.780Z,1.25
2022-12-08T14:21:20.315Z,1.17
2022-12-08T14:23:47.370Z,1.30
2022-12-08T14:26:13.826Z,1.23
2022-12-08T14:28:44.688Z,1.33
2022-12-08T14:31:14.058Z,1.23
2022-12-08T14:33:40.916Z,1.07
2022-12-08T14:36:10.225Z,1.13
2022-12-08T14:38:37.736Z,1.15
2022-12-08T14:41:11.593Z,0.85
2022-12-08T14:43:37.927Z,1.15
2022-12-08T14:46:19.205Z,1.03
2022-12-08T14:48:46.715Z,1.58
2022-12-08T14:51:19.227Z,1.30
2022-12-08T14:54:06.451Z,1.00
2022-12-08T14:56:40.360Z,1.40
2022-12-08T14:59:17.195Z,1.30
2022-12-08T15:01:44.744Z,1.27
2022-12-08T15:04:14.681Z,1.30
2022-12-08T15:06:55.411Z,1.30
2022-12-08T15:09:46.190Z,1.60
2022-12-08T15:12:12.599Z,1.50
2022-12-08T15:15:15.559Z,1.40
2022-12-08T15:17:47.083Z,1.60
2022-12-08T15:20:41.385Z,1.70
2022-12-08T15:23:22.911Z,3.58
2022-12-08T15:25:53.026Z,4.87
2022-12-08T15:28:25.201Z,3.95
2022-12-08T15:30:55.559Z,2.75
2022-12-08T15:33:22.300Z,2.55
2022-12-08T15:35:50.428Z,3.22
2022-12-08T15:38:20.598Z,2.30
2022-12-08T15:40:47.221Z,1.98
2022-12-08T15:43:13.715Z,3.05
2022-12-08T15:45:46.864Z,2.28
2022-12-08T15:48:26.819Z,2.70
2022-12-08T15:50:54.283Z,2.97
2022-12-08T15:53:20.760Z,3.03
2022-12-08T15:56:03.860Z,2.63
2022-12-08T16:01:20.906Z,2.78
2022-12-08T16:09:33.980Z,3.13
2022-12-08T16:12:20.330Z,3.00
2022-12-08T16:15:48.137Z,3.13
2022-12-08T16:17:34.041Z,3.03
2022-12-08T16:20:01.420Z,2.88
2022-12-08T16:22:52.786Z,2.85
2022-12-08T16:25:19.950Z,3.22
2022-12-08T16:28:23.263Z,3.30
2022-12-08T16:30:35.946Z,3.20
2022-12-08T16:33:02.451Z,3.22
2022-12-08T16:35:28.932Z,3.85
2022-12-08T16:37:55.557Z,3.55
2022-12-08T16:40:22.553Z,3.10
2022-12-08T16:42:50.129Z,3.50
2022-12-08T16:45:24.149Z,2.88
2022-12-08T16:47:58.086Z,2.78
2022-12-08T16:50:29.940Z,2.80
2022-12-08T16:53:01.314Z,2.70
2022-12-08T16:55:27.934Z,2.77
2022-12-08T16:57:54.967Z,2.20
2022-12-08T17:00:23.610Z,2.83
2022-12-08T17:02:51.582Z,2.50
2022-12-08T17:05:19.582Z,2.95
2022-12-08T17:07:51.242Z,2.60
2022-12-08T17:10:21.465Z,3.03
2022-12-08T17:12:47.883Z,3.20
2022-12-08T17:15:17.550Z,2.65
2022-12-08T17:17:43.936Z,3.10
2022-12-08T17:20:17.300Z,2.87
2022-12-08T17:22:43.722Z,2.63
2022-12-08T17:25:10.338Z,2.65
2022-12-08T17:27:39.220Z,2.65
2022-12-08T17:30:07.747Z,2.53
2022-12-08T17:32:34.459Z,2.70
2022-12-08T17:35:00.799Z,2.53
2022-12-08T17:37:27.184Z,2.83
2022-12-08T17:39:53.652Z,3.00
2022-12-08T17:42:26.163Z,3.05
2022-12-08T17:44:53.867Z,3.03
2022-12-08T17:47:20.467Z,2.65
2022-12-08T17:49:46.986Z,3.35
2022-12-08T17:52:13.478Z,3.83
2022-12-08T17:54:39.826Z,2.95
2022-12-08T17:57:06.159Z,3.60
2022-12-08T17:59:32.840Z,3.72
2022-12-08T18:01:59.929Z,3.40
2022-12-08T18:04:27.911Z,3.60
2022-12-08T18:06:54.881Z,3.72
2022-12-08T18:09:21.832Z,3.70
2022-12-08T18:11:48.619Z,3.38
2022-12-08T18:14:15.869Z,4.00
2022-12-08T18:16:46.172Z,3.60
2022-12-08T18:19:13.985Z,3.55
2022-12-08T18:21:41.300Z,3.67
2022-12-08T18:24:14.012Z,8.27
2022-12-08T18:26:40.337Z,4.97
2022-12-08T18:29:06.774Z,4.65
2022-12-08T18:31:33.197Z,5.07
2022-12-08T18:33:59.543Z,5.23
2022-12-08T18:36:26.176Z,5.00
2022-12-08T18:38:54.018Z,5.10
2022-12-08T18:41:25.520Z,4.57
2022-12-08T18:43:53.740Z,4.72
2022-12-08T18:46:23.135Z,5.47
2022-12-08T18:48:51.157Z,4.43
2022-12-08T18:51:20.051Z,4.85
2022-12-08T18:53:47.252Z,5.70
2022-12-08T18:56:31.680Z,6.00
2022-12-08T18:59:10.159Z,5.00
2022-12-08T19:01:38.681Z,5.53
2022-12-08T19:06:53.466Z,5.63
2022-12-08T19:09:33.803Z,5.65
2022-12-08T19:12:00.251Z,6.90
2022-12-08T19:14:28.449Z,5.47
2022-12-08T19:16:55.431Z,5.90
2022-12-08T19:19:23.432Z,6.10
2022-12-08T19:21:50.365Z,6.25
2022-12-08T19:24:16.977Z,6.30
2022-12-08T19:26:43.737Z,7.20
2022-12-08T19:29:11.386Z,6.75
2022-12-08T19:31:38.168Z,7.75
2022-12-08T19:34:05.964Z,6.78
2022-12-08T19:36:35.425Z,7.23
2022-12-08T19:39:49.473Z,6.88
2022-12-08T19:42:36.747Z,6.95
2022-12-08T19:45:12.166Z,7.22
2022-12-08T19:47:39.758Z,7.88
2022-12-08T19:50:27.921Z,6.83
2022-12-08T19:52:54.779Z,8.15
2022-12-08T19:55:21.309Z,8.02
2022-12-08T19:57:47.678Z,8.73
2022-12-08T20:00:20.145Z,8.02
2022-12-08T20:02:47.746Z,8.23
2022-12-08T20:05:14.525Z,9.20
2022-12-08T20:07:41.607Z,9.50
2022-12-08T20:10:38.718Z,10.00
2022-12-08T20:13:24.594Z,8.77
2022-12-08T20:15:51.448Z,10.17
2022-12-08T20:18:20.877Z,9.57
2022-12-08T20:20:48.580Z,9.38
2022-12-08T20:23:17.704Z,10.00
2022-12-08T20:25:45.861Z,9.90
2022-12-08T20:28:14.612Z,9.17
2022-12-08T20:30:42.716Z,9.70
2022-12-08T20:33:12.227Z,9.95
2022-12-08T20:35:38.557Z,9.35
2022-12-08T20:38:05.043Z,8.98
2022-12-08T20:40:31.428Z,8.90
2022-12-08T20:42:57.968Z,9.95
2022-12-08T20:45:24.301Z,9.40
2022-12-08T20:47:50.664Z,9.68
2022-12-08T20:50:17.276Z,8.15
2022-12-08T20:52:43.700Z,9.60
2022-12-08T20:55:10.921Z,8.60
2022-12-08T20:57:37.384Z,9.95
2022-12-08T21:00:06.063Z,10.25
2022-12-08T21:02:37.649Z,9.55
2022-12-08T21:05:07.781Z,10.90
2022-12-08T21:07:34.836Z,15.02
2022-12-08T21:10:14.700Z,13.05
2022-12-08T21:12:41.482Z,10.40
2022-12-08T21:15:08.695Z,10.23
2022-12-08T21:17:35.380Z,9.90
2022-12-08T21:20:08.557Z,10.40
2022-12-08T21:22:35.245Z,9.55
2022-12-08T21:25:01.941Z,10.43
2022-12-08T21:27:29.715Z,10.38
2022-12-08T21:30:00.363Z,10.10
2022-12-08T21:32:30.274Z,10.02
2022-12-08T21:34:57.028Z,10.23
2022-12-08T21:37:24.950Z,10.88
2022-12-08T21:39:51.834Z,11.45
2022-12-08T21:42:36.840Z,11.10
2022-12-08T21:45:04.119Z,10.68
2022-12-08T21:47:30.807Z,10.23
2022-12-08T21:49:59.411Z,11.40
2022-12-08T21:52:26.405Z,11.05
2022-12-08T21:54:53.008Z,10.60
2022-12-08T21:57:20.306Z,10.68
2022-12-08T21:59:47.121Z,11.68
2022-12-08T22:02:22.214Z,10.35
2022-12-08T22:04:49.893Z,10.07
2022-12-08T22:07:16.643Z,10.77
2022-12-08T22:09:54.237Z,10.40
2022-12-08T22:12:20.896Z,10.73
2022-12-08T22:14:49.889Z,10.45
2022-12-08T22:17:16.878Z,11.10
2022-12-08T22:19:49.413Z,10.37
2022-12-08T22:22:15.872Z,10.95
2022-12-08T22:24:42.893Z,11.30
2022-12-08T22:27:09.320Z,11.70
2022-12-08T22:29:48.754Z,11.68
2022-12-08T22:32:15.273Z,11.20
2022-12-08T22:34:41.665Z,11.73
2022-12-08T22:37:08.168Z,11.75
2022-12-08T22:39:42.069Z,10.30
2022-12-08T22:42:08.987Z,11.40
2022-12-08T22:44:37.835Z,12.33
2022-12-08T22:47:04.472Z,11.02
2022-12-08T22:49:31.688Z,10.93
2022-12-08T22:51:58.284Z,12.25
2022-12-08T22:54:24.835Z,11.80
2022-12-08T22:56:51.179Z,12.07
2022-12-08T22:59:17.547Z,12.15
2022-12-08T23:01:43.885Z,12.90
2022-12-08T23:04:17.191Z,11.68
2022-12-08T23:06:44.285Z,10.20
2022-12-08T23:09:11.229Z,10.33
2022-12-08T23:11:37.771Z,9.55
2022-12-08T23:14:04.077Z,9.98
2022-12-08T23:16:30.487Z,11.02
2022-12-08T23:18:58.268Z,10.23
2022-12-08T23:21:25.015Z,10.67
2022-12-08T23:23:51.442Z,10.98
2022-12-08T23:26:24.264Z,10.75
2022-12-08T23:28:51.071Z,11.45
2022-12-08T23:31:17.949Z,11.48
2022-12-08T23:33:44.850Z,10.83
2022-12-08T23:36:13.332Z,13.05
2022-12-08T23:38:39.851Z,11.73
2022-12-08T23:41:07.769Z,11.57
2022-12-08T23:43:35.224Z,11.38
2022-12-08T23:46:01.684Z,12.03
2022-12-08T23:48:28.782Z,12.50
2022-12-08T23:50:56.923Z,11.70
2022-12-08T23:53:23.579Z,12.52
2022-12-08T23:55:50.147Z,11.63
2022-12-08T23:58:17.325Z,12.37
